sensor_id;sensor_type;location;lat;lon;timestamp;pressure;altitude;pressure_sealevel;temperature;humidity
56402;BME280;42299;35.160;26.100;2023-09-07T00:06:56;100581.06;;;27.52;64.90
56402;BME280;42299;35.160;26.100;2023-09-07T00:17:20;100554.16;;;27.79;60.19
56402;BME280;42299;35.160;26.100;2023-09-07T00:27:44;100561.19;;;27.97;55.24
56402;BME280;42299;35.160;26.100;2023-09-07T00:38:07;100536.88;;;27.96;54.54
56402;BME280;42299;35.160;26.100;2023-09-07T00:48:35;100551.28;;;27.82;54.31
56402;BME280;42299;35.160;26.100;2023-09-07T00:58:58;100546.50;;;27.56;56.30
56402;BME280;42299;35.160;26.100;2023-09-07T01:09:26;100564.94;;;27.49;55.97
56402;BME280;42299;35.160;26.100;2023-09-07T01:19:52;100570.66;;;27.60;54.18
56402;BME280;42299;35.160;26.100;2023-09-07T01:30:18;100547.09;;;27.61;53.34
56402;BME280;42299;35.160;26.100;2023-09-07T01:40:41;100543.25;;;27.65;52.54
56402;BME280;42299;35.160;26.100;2023-09-07T01:51:07;100565.50;;;27.56;52.75
56402;BME280;42299;35.160;26.100;2023-09-07T02:01:30;100567.53;;;27.51;52.48
56402;BME280;42299;35.160;26.100;2023-09-07T02:11:59;100568.59;;;27.48;51.97
56402;BME280;42299;35.160;26.100;2023-09-07T02:22:22;100563.69;;;27.39;52.69
56402;BME280;42299;35.160;26.100;2023-09-07T02:32:47;100560.56;;;27.15;54.14
56402;BME280;42299;35.160;26.100;2023-09-07T02:43:10;100558.63;;;27.02;54.58
56402;BME280;42299;35.160;26.100;2023-09-07T02:53:35;100550.97;;;26.92;55.19
56402;BME280;42299;35.160;26.100;2023-09-07T03:03:58;100541.31;;;26.71;57.13
56402;BME280;42299;35.160;26.100;2023-09-07T03:14:23;100557.09;;;26.46;59.99
56402;BME280;42299;35.160;26.100;2023-09-07T03:24:46;100557.78;;;26.34;61.09
56402;BME280;42299;35.160;26.100;2023-09-07T03:35:11;100575.13;;;26.30;60.42
56402;BME280;42299;35.160;26.100;2023-09-07T03:45:34;100581.16;;;26.17;59.83
56402;BME280;42299;35.160;26.100;2023-09-07T03:55:58;100575.13;;;26.30;60.18
56402;BME280;42299;35.160;26.100;2023-09-07T04:06:21;100590.69;;;26.07;63.49
56402;BME280;42299;35.160;26.100;2023-09-07T04:16:46;100609.63;;;26.07;65.72
56402;BME280;42299;35.160;26.100;2023-09-07T04:27:09;100613.59;;;26.36;67.71
56402;BME280;42299;35.160;26.100;2023-09-07T04:37:34;100615.47;;;26.69;71.00
56402;BME280;42299;35.160;26.100;2023-09-07T04:47:57;100625.50;;;27.01;70.93
56402;BME280;42299;35.160;26.100;2023-09-07T04:58:21;100623.66;;;27.50;73.77
56402;BME280;42299;35.160;26.100;2023-09-07T05:08:44;100638.97;;;28.14;78.05
56402;BME280;42299;35.160;26.100;2023-09-07T05:19:09;100661.66;;;28.73;74.18
56402;BME280;42299;35.160;26.100;2023-09-07T05:29:32;100650.75;;;29.31;68.89
56402;BME280;42299;35.160;26.100;2023-09-07T05:39:58;100654.69;;;29.96;66.05
56402;BME280;42299;35.160;26.100;2023-09-07T05:50:21;100647.56;;;30.47;68.44
56402;BME280;42299;35.160;26.100;2023-09-07T06:00:45;100644.72;;;31.26;72.03
56402;BME280;42299;35.160;26.100;2023-09-07T06:11:08;100662.84;;;32.13;66.71
56402;BME280;42299;35.160;26.100;2023-09-07T06:21:33;100663.47;;;32.88;70.13
56402;BME280;42299;35.160;26.100;2023-09-07T06:31:56;100684.69;;;33.19;71.49
56402;BME280;42299;35.160;26.100;2023-09-07T06:42:21;100692.34;;;33.14;66.63
56402;BME280;42299;35.160;26.100;2023-09-07T06:52:53;100704.59;;;32.87;75.83
56402;BME280;42299;35.160;26.100;2023-09-07T07:03:18;100711.38;;;32.22;95.74
56402;BME280;42299;35.160;26.100;2023-09-07T07:13:41;100712.53;;;32.55;92.36
56402;BME280;42299;35.160;26.100;2023-09-07T07:24:07;100720.16;;;33.32;79.67
56402;BME280;42299;35.160;26.100;2023-09-07T07:34:30;100704.56;;;34.22;67.92
56402;BME280;42299;35.160;26.100;2023-09-07T07:44:56;100705.84;;;34.50;62.30
56402;BME280;42299;35.160;26.100;2023-09-07T07:55:19;100698.88;;;34.77;55.10
56402;BME280;42299;35.160;26.100;2023-09-07T08:05:44;100693.78;;;34.73;51.75
56402;BME280;42299;35.160;26.100;2023-09-07T08:16:07;100689.59;;;34.90;49.59
56402;BME280;42299;35.160;26.100;2023-09-07T08:26:33;100696.03;;;35.21;42.39
56402;BME280;42299;35.160;26.100;2023-09-07T08:36:56;100688.69;;;35.91;36.03
56402;BME280;42299;35.160;26.100;2023-09-07T08:47:22;100672.44;;;35.79;41.40
56402;BME280;42299;35.160;26.100;2023-09-07T08:57:45;100658.63;;;35.08;49.06
56402;BME280;42299;35.160;26.100;2023-09-07T09:08:11;100668.16;;;34.84;49.64
56402;BME280;42299;35.160;26.100;2023-09-07T09:18:33;100658.28;;;34.60;52.82
56402;BME280;42299;35.160;26.100;2023-09-07T09:29:00;100646.28;;;34.40;48.92
56402;BME280;42299;35.160;26.100;2023-09-07T09:39:23;100656.63;;;34.05;44.83
56402;BME280;42299;35.160;26.100;2023-09-07T09:49:49;100617.94;;;34.93;33.27
56402;BME280;42299;35.160;26.100;2023-09-07T10:00:13;100603.34;;;34.30;45.59
56402;BME280;42299;35.160;26.100;2023-09-07T10:10:49;100622.91;;;33.93;52.43
56402;BME280;42299;35.160;26.100;2023-09-07T10:21:15;100628.97;;;33.97;62.62
56402;BME280;42299;35.160;26.100;2023-09-07T10:31:50;100634.31;;;34.42;67.28
56402;BME280;42299;35.160;26.100;2023-09-07T10:42:20;100632.16;;;34.24;69.24
56402;BME280;42299;35.160;26.100;2023-09-07T10:52:46;100605.31;;;33.19;86.79
56402;BME280;42299;35.160;26.100;2023-09-07T11:03:10;100586.81;;;32.77;100.00
56402;BME280;42299;35.160;26.100;2023-09-07T11:13:37;100581.13;;;33.02;100.00
56402;BME280;42299;35.160;26.100;2023-09-07T11:24:00;100572.25;;;32.65;100.00
56402;BME280;42299;35.160;26.100;2023-09-07T11:34:27;100565.53;;;32.69;100.00
56402;BME280;42299;35.160;26.100;2023-09-07T11:44:50;100557.72;;;33.09;88.46
56402;BME280;42299;35.160;26.100;2023-09-07T11:55:16;100539.50;;;33.21;85.30
56402;BME280;42299;35.160;26.100;2023-09-07T12:05:39;100543.06;;;33.10;84.07
56402;BME280;42299;35.160;26.100;2023-09-07T12:16:08;100539.50;;;33.21;79.21
56402;BME280;42299;35.160;26.100;2023-09-07T12:26:31;100545.31;;;32.94;72.59
56402;BME280;42299;35.160;26.100;2023-09-07T12:36:56;100555.38;;;32.82;77.47
56402;BME280;42299;35.160;26.100;2023-09-07T12:47:20;100556.44;;;32.58;71.66
56402;BME280;42299;35.160;26.100;2023-09-07T12:57:46;100557.56;;;32.55;70.19
56402;BME280;42299;35.160;26.100;2023-09-07T13:08:10;100549.53;;;32.76;66.25
56402;BME280;42299;35.160;26.100;2023-09-07T13:18:36;100535.00;;;32.75;71.82
56402;BME280;42299;35.160;26.100;2023-09-07T13:28:59;100544.69;;;32.68;73.70
56402;BME280;42299;35.160;26.100;2023-09-07T13:39:23;100543.91;;;32.66;83.32
56402;BME280;42299;35.160;26.100;2023-09-07T13:49:46;100531.59;;;32.61;92.26
56402;BME280;42299;35.160;26.100;2023-09-07T14:00:11;100536.41;;;32.46;100.00
56402;BME280;42299;35.160;26.100;2023-09-07T14:10:34;100539.25;;;32.33;100.00
56402;BME280;42299;35.160;26.100;2023-09-07T14:20:58;100525.84;;;32.41;100.00
56402;BME280;42299;35.160;26.100;2023-09-07T14:31:22;100528.00;;;31.90;100.00
56402;BME280;42299;35.160;26.100;2023-09-07T14:41:47;100543.41;;;31.31;100.00
56402;BME280;42299;35.160;26.100;2023-09-07T14:52:10;100532.13;;;30.86;100.00
56402;BME280;42299;35.160;26.100;2023-09-07T15:02:34;100538.38;;;30.76;100.00
56402;BME280;42299;35.160;26.100;2023-09-07T15:12:57;100527.38;;;30.65;100.00
56402;BME280;42299;35.160;26.100;2023-09-07T15:23:23;100527.66;;;30.47;100.00
56402;BME280;42299;35.160;26.100;2023-09-07T15:33:45;100519.91;;;30.41;100.00
56402;BME280;42299;35.160;26.100;2023-09-07T15:44:10;100519.56;;;30.33;100.00
56402;BME280;42299;35.160;26.100;2023-09-07T15:54:32;100520.44;;;30.34;100.00
56402;BME280;42299;35.160;26.100;2023-09-07T16:04:57;100517.19;;;30.29;100.00
56402;BME280;42299;35.160;26.100;2023-09-07T16:15:20;100535.34;;;30.16;100.00
56402;BME280;42299;35.160;26.100;2023-09-07T16:25:45;100533.13;;;29.95;100.00
56402;BME280;42299;35.160;26.100;2023-09-07T16:36:08;100531.97;;;29.73;100.00
56402;BME280;42299;35.160;26.100;2023-09-07T16:46:33;100544.22;;;29.39;100.00
56402;BME280;42299;35.160;26.100;2023-09-07T16:56:55;100555.91;;;28.98;100.00
56402;BME280;42299;35.160;26.100;2023-09-07T17:07:20;100565.59;;;28.74;100.00
56402;BME280;42299;35.160;26.100;2023-09-07T17:17:44;100589.63;;;28.66;100.00
56402;BME280;42299;35.160;26.100;2023-09-07T17:28:08;100606.03;;;28.64;100.00
56402;BME280;42299;35.160;26.100;2023-09-07T17:38:31;100611.66;;;28.61;100.00
56402;BME280;42299;35.160;26.100;2023-09-07T17:48:55;100612.31;;;28.50;100.00
56402;BME280;42299;35.160;26.100;2023-09-07T17:59:18;100634.72;;;28.24;100.00
56402;BME280;42299;35.160;26.100;2023-09-07T18:09:42;100634.91;;;28.05;100.00
56402;BME280;42299;35.160;26.100;2023-09-07T18:20:08;100641.72;;;27.83;100.00
56402;BME280;42299;35.160;26.100;2023-09-07T18:30:34;100633.91;;;27.61;100.00
56402;BME280;42299;35.160;26.100;2023-09-07T18:40:58;100650.84;;;27.49;100.00
56402;BME280;42299;35.160;26.100;2023-09-07T18:51:25;100655.13;;;27.37;100.00
56402;BME280;42299;35.160;26.100;2023-09-07T19:01:49;100650.28;;;27.26;100.00
56402;BME280;42299;35.160;26.100;2023-09-07T19:12:15;100641.34;;;27.09;100.00
56402;BME280;42299;35.160;26.100;2023-09-07T19:22:38;100645.81;;;26.92;100.00
56402;BME280;42299;35.160;26.100;2023-09-07T19:33:04;100640.00;;;26.83;100.00
56402;BME280;42299;35.160;26.100;2023-09-07T19:43:27;100639.47;;;26.76;100.00
56402;BME280;42299;35.160;26.100;2023-09-07T19:53:52;100638.03;;;26.69;100.00
56402;BME280;42299;35.160;26.100;2023-09-07T20:04:15;100643.28;;;26.55;100.00
56402;BME280;42299;35.160;26.100;2023-09-07T20:14:40;100629.66;;;26.39;100.00
56402;BME280;42299;35.160;26.100;2023-09-07T20:25:03;100622.25;;;26.26;100.00
56402;BME280;42299;35.160;26.100;2023-09-07T20:35:28;100617.75;;;26.07;100.00
56402;BME280;42299;35.160;26.100;2023-09-07T20:45:53;100613.97;;;26.11;100.00
56402;BME280;42299;35.160;26.100;2023-09-07T20:56:19;100605.03;;;26.09;100.00
56402;BME280;42299;35.160;26.100;2023-09-07T21:06:42;100603.72;;;25.99;100.00
56402;BME280;42299;35.160;26.100;2023-09-07T21:17:07;100599.03;;;25.86;100.00
56402;BME280;42299;35.160;26.100;2023-09-07T21:27:31;100604.19;;;25.73;100.00
56402;BME280;42299;35.160;26.100;2023-09-07T21:37:55;100613.44;;;25.67;100.00
56402;BME280;42299;35.160;26.100;2023-09-07T21:48:18;100598.91;;;25.51;100.00
56402;BME280;42299;35.160;26.100;2023-09-07T21:58:43;100595.41;;;25.49;100.00
56402;BME280;42299;35.160;26.100;2023-09-07T22:09:06;100589.78;;;25.35;100.00
56402;BME280;42299;35.160;26.100;2023-09-07T22:19:32;100585.03;;;25.21;100.00
56402;BME280;42299;35.160;26.100;2023-09-07T22:29:55;100588.03;;;25.15;100.00
56402;BME280;42299;35.160;26.100;2023-09-07T22:40:22;100580.22;;;25.09;100.00
56402;BME280;42299;35.160;26.100;2023-09-07T22:50:45;100574.56;;;24.95;100.00
56402;BME280;42299;35.160;26.100;2023-09-07T23:01:12;100574.97;;;24.86;100.00
56402;BME280;42299;35.160;26.100;2023-09-07T23:11:35;100555.03;;;24.70;100.00
56402;BME280;42299;35.160;26.100;2023-09-07T23:22:01;100538.97;;;24.67;100.00
56402;BME280;42299;35.160;26.100;2023-09-07T23:32:24;100538.44;;;24.58;100.00
56402;BME280;42299;35.160;26.100;2023-09-07T23:42:49;100520.91;;;24.48;100.00
56402;BME280;42299;35.160;26.100;2023-09-07T23:53:13;100514.84;;;24.23;100.00
